createdAt,value
2018-06-12T00:01:22.429Z,5.95
2018-06-12T00:03:50.710Z,5.03
2018-06-12T00:06:18.942Z,5.33
2018-06-12T00:08:47.173Z,5.70
2018-06-12T00:11:15.456Z,5.03
2018-06-12T00:13:43.734Z,5.53
2018-06-12T00:16:11.988Z,6.28
2018-06-12T00:18:40.246Z,5.92
2018-06-12T00:21:08.459Z,6.65
2018-06-12T00:23:36.618Z,6.37
2018-06-12T00:26:04.554Z,5.70
2018-06-12T00:28:32.853Z,5.33
2018-06-12T00:31:01.120Z,6.40
2018-06-12T00:33:29.363Z,6.40
2018-06-12T00:35:57.642Z,6.08
2018-06-12T00:38:25.913Z,5.15
2018-06-12T00:40:54.118Z,6.47
2018-06-12T00:43:22.288Z,6.70
2018-06-12T00:45:50.455Z,5.80
2018-06-12T00:48:18.675Z,6.53
2018-06-12T00:50:46.865Z,5.75
2018-06-12T00:53:15.103Z,6.05
2018-06-12T00:55:43.334Z,6.22
2018-06-12T00:58:11.561Z,5.80
2018-06-12T01:00:39.829Z,6.85
2018-06-12T01:03:08.009Z,6.03
2018-06-12T01:05:36.302Z,5.70
2018-06-12T01:08:04.559Z,6.30
2018-06-12T01:10:32.791Z,7.05
2018-06-12T01:13:01.339Z,6.10
2018-06-12T01:15:29.357Z,6.00
2018-06-12T01:17:57.584Z,5.97
2018-06-12T01:20:25.753Z,6.80
2018-06-12T01:22:54.020Z,5.90
2018-06-12T01:25:22.220Z,6.62
2018-06-12T01:27:50.388Z,6.55
2018-06-12T01:30:18.617Z,5.78
2018-06-12T01:32:46.789Z,6.83
2018-06-12T01:35:14.986Z,6.17
2018-06-12T01:37:43.245Z,7.45
2018-06-12T01:40:12.138Z,6.83
2018-06-12T01:42:40.334Z,7.25
2018-06-12T01:45:08.604Z,6.25
2018-06-12T01:47:36.777Z,7.30
2018-06-12T01:50:05.047Z,5.90
2018-06-12T01:52:33.253Z,6.40
2018-06-12T01:55:01.512Z,7.15
2018-06-12T01:57:29.725Z,6.65
2018-06-12T01:59:57.957Z,7.53
2018-06-12T02:02:26.225Z,7.53
2018-06-12T02:04:54.802Z,6.60
2018-06-12T02:07:23.010Z,7.37
2018-06-12T02:09:51.254Z,6.58
2018-06-12T02:12:19.441Z,7.50
2018-06-12T02:14:47.857Z,7.20
2018-06-12T02:17:16.059Z,6.85
2018-06-12T02:19:44.266Z,7.10
2018-06-12T02:22:12.652Z,6.33
2018-06-12T02:24:40.864Z,6.85
2018-06-12T02:27:09.096Z,8.40
2018-06-12T02:29:37.343Z,8.20
2018-06-12T02:32:05.286Z,7.25
2018-06-12T02:34:33.564Z,8.80
2018-06-12T02:37:01.737Z,9.05
2018-06-12T02:39:29.966Z,8.78
2018-06-12T02:41:58.208Z,10.20
2018-06-12T02:44:26.403Z,8.58
2018-06-12T02:46:54.554Z,9.35
2018-06-12T02:49:22.760Z,8.60
2018-06-12T02:51:51.047Z,8.35
2018-06-12T02:54:19.258Z,8.23
2018-06-12T02:56:47.395Z,7.80
2018-06-12T02:59:15.547Z,9.83
2018-06-12T03:01:43.811Z,7.22
2018-06-12T03:04:12.074Z,7.65
2018-06-12T03:06:40.281Z,7.55
2018-06-12T03:09:09.158Z,8.20
2018-06-12T03:11:37.397Z,5.78
2018-06-12T03:14:05.664Z,5.33
2018-06-12T03:16:34.053Z,5.28
2018-06-12T03:19:02.327Z,5.85
2018-06-12T03:21:30.506Z,5.53
2018-06-12T03:23:58.700Z,5.80
2018-06-12T03:26:26.962Z,5.80
2018-06-12T03:28:55.215Z,6.03
2018-06-12T03:31:23.490Z,5.50
2018-06-12T03:33:51.713Z,5.92
2018-06-12T03:36:19.963Z,4.75
2018-06-12T03:38:48.215Z,4.75
2018-06-12T03:41:16.838Z,6.10
2018-06-12T03:43:47.028Z,5.60
2018-06-12T03:46:16.733Z,4.85
2018-06-12T03:48:45.240Z,5.53
2018-06-12T03:51:14.021Z,7.25
2018-06-12T03:53:42.534Z,5.70
2018-06-12T03:56:12.098Z,5.47
2018-06-12T03:58:40.436Z,5.50
2018-06-12T04:01:08.631Z,6.30
2018-06-12T04:03:37.034Z,5.20
2018-06-12T04:06:05.313Z,5.12
2018-06-12T04:08:33.633Z,5.70
2018-06-12T04:11:01.889Z,5.42
2018-06-12T04:13:30.169Z,5.05
2018-06-12T04:15:58.357Z,5.60
2018-06-12T04:18:26.528Z,6.37
2018-06-12T04:20:54.741Z,5.17
2018-06-12T04:23:23.016Z,5.47
2018-06-12T04:25:51.209Z,5.72
2018-06-12T04:28:19.430Z,4.58
2018-06-12T04:30:47.614Z,6.20
2018-06-12T04:33:15.831Z,5.47
2018-06-12T04:35:44.025Z,5.62
2018-06-12T04:38:12.228Z,5.87
2018-06-12T04:40:40.544Z,5.87
2018-06-12T04:43:08.720Z,4.90
2018-06-12T04:45:36.912Z,4.80
2018-06-12T04:48:05.128Z,5.53
2018-06-12T04:50:33.312Z,6.28
2018-06-12T04:53:01.534Z,6.83
2018-06-12T04:55:29.841Z,5.90
2018-06-12T04:57:58.165Z,6.12
2018-06-12T05:00:26.397Z,6.87
2018-06-12T05:02:54.588Z,6.62
2018-06-12T05:05:22.785Z,6.78
2018-06-12T05:07:51.045Z,7.00
2018-06-12T05:10:19.248Z,7.00
2018-06-12T05:12:47.475Z,6.87
2018-06-12T05:15:15.684Z,5.65
2018-06-12T05:17:43.897Z,7.15
2018-06-12T05:20:12.067Z,6.00
2018-06-12T05:22:41.317Z,5.08
2018-06-12T05:25:09.520Z,6.72
2018-06-12T05:27:37.705Z,6.15
2018-06-12T05:30:05.931Z,7.45
2018-06-12T05:32:34.172Z,6.03
2018-06-12T05:35:02.390Z,6.78
2018-06-12T05:37:30.677Z,7.30
2018-06-12T05:39:58.648Z,7.25
2018-06-12T05:42:26.830Z,6.85
2018-06-12T05:44:55.120Z,7.30
2018-06-12T05:47:23.352Z,7.20
2018-06-12T05:49:51.588Z,8.03
2018-06-12T05:52:19.911Z,7.37
2018-06-12T05:54:48.157Z,7.08
2018-06-12T05:57:16.385Z,7.90
2018-06-12T05:59:44.644Z,6.78
2018-06-12T06:02:12.847Z,7.37
2018-06-12T06:04:41.112Z,7.03
2018-06-12T06:07:09.354Z,7.20
2018-06-12T06:09:37.628Z,7.30
2018-06-12T06:12:05.969Z,8.23
2018-06-12T06:14:34.217Z,7.75
2018-06-12T06:17:02.640Z,7.22
2018-06-12T06:19:30.852Z,7.50
2018-06-12T06:21:59.081Z,6.92
2018-06-12T06:24:27.450Z,8.30
2018-06-12T06:26:55.673Z,7.27
2018-06-12T06:29:23.886Z,7.10
2018-06-12T06:31:52.399Z,7.23
2018-06-12T06:34:20.705Z,6.60
2018-06-12T06:36:48.956Z,6.80
2018-06-12T06:39:17.179Z,7.60
2018-06-12T06:41:45.457Z,7.10
2018-06-12T06:44:13.647Z,6.50
2018-06-12T06:46:41.859Z,6.97
2018-06-12T06:49:10.105Z,6.60
2018-06-12T06:51:38.316Z,6.22
2018-06-12T06:54:06.613Z,6.35
2018-06-12T06:56:34.820Z,6.53
2018-06-12T06:59:03.064Z,6.58
2018-06-12T07:01:31.360Z,7.08
2018-06-12T07:03:59.674Z,6.07
2018-06-12T07:06:27.901Z,6.30
2018-06-12T07:08:56.226Z,6.50
2018-06-12T07:11:24.538Z,6.20
2018-06-12T07:13:52.843Z,6.30
2018-06-12T07:16:21.098Z,6.05
2018-06-12T07:18:49.354Z,5.65
2018-06-12T07:21:18.144Z,6.00
2018-06-12T07:23:46.526Z,5.78
2018-06-12T07:26:14.829Z,6.00
2018-06-12T07:28:43.135Z,6.80
2018-06-12T07:31:11.325Z,6.05
2018-06-12T07:33:40.572Z,4.80
2018-06-12T07:36:08.748Z,5.30
2018-06-12T07:38:36.936Z,5.70
2018-06-12T07:41:05.188Z,5.42
2018-06-12T07:43:33.485Z,4.90
2018-06-12T07:46:01.696Z,5.42
2018-06-12T07:48:29.933Z,4.10
2018-06-12T07:50:58.197Z,3.72
2018-06-12T07:53:26.435Z,3.30
2018-06-12T07:55:54.652Z,3.90
2018-06-12T07:58:22.905Z,3.40
2018-06-12T08:00:51.211Z,3.85
2018-06-12T08:03:19.778Z,3.60
2018-06-12T08:05:48.147Z,4.30
2018-06-12T08:08:16.324Z,3.42
2018-06-12T08:10:44.574Z,3.20
2018-06-12T08:13:12.940Z,3.50
2018-06-12T08:15:41.288Z,3.40
2018-06-12T08:18:09.543Z,3.27
2018-06-12T08:20:37.746Z,3.60
2018-06-12T08:23:05.979Z,3.30
2018-06-12T08:25:34.275Z,3.40
2018-06-12T08:28:02.471Z,3.58
2018-06-12T08:30:30.731Z,3.67
2018-06-12T08:32:58.820Z,3.50
2018-06-12T08:35:27.121Z,3.33
2018-06-12T08:37:55.293Z,3.10
2018-06-12T08:40:23.525Z,3.42
2018-06-12T08:42:51.713Z,3.35
2018-06-12T08:45:21.004Z,2.87
2018-06-12T08:47:49.277Z,3.70
2018-06-12T08:50:17.505Z,3.20
2018-06-12T08:52:45.899Z,3.30
2018-06-12T08:55:14.270Z,3.10
2018-06-12T08:57:42.494Z,3.20
2018-06-12T09:00:10.856Z,3.70
2018-06-12T09:02:39.087Z,4.30
2018-06-12T09:05:07.307Z,3.20
2018-06-12T09:07:35.624Z,3.10
2018-06-12T09:10:03.911Z,3.58
2018-06-12T09:12:32.153Z,3.60
2018-06-12T09:15:00.546Z,3.52
2018-06-12T09:17:28.861Z,4.03
2018-06-12T09:19:57.064Z,3.35
2018-06-12T09:22:25.344Z,3.45
2018-06-12T09:24:53.564Z,4.45
2018-06-12T09:27:21.849Z,4.10
2018-06-12T09:29:50.104Z,3.40
2018-06-12T09:32:18.375Z,4.10
2018-06-12T09:34:46.687Z,4.12
2018-06-12T09:37:15.000Z,4.03
2018-06-12T09:39:43.240Z,3.83
2018-06-12T09:42:11.530Z,4.03
2018-06-12T09:44:39.742Z,3.60
2018-06-12T09:47:08.009Z,4.45
2018-06-12T09:49:36.284Z,4.50
2018-06-12T09:52:04.513Z,3.75
2018-06-12T09:54:32.689Z,4.40
2018-06-12T09:57:00.972Z,4.00
2018-06-12T09:59:30.042Z,3.60
2018-06-12T10:01:58.232Z,4.12
2018-06-12T10:04:26.441Z,4.08
2018-06-12T10:06:54.655Z,4.45
2018-06-12T10:09:22.871Z,3.70
2018-06-12T10:11:51.100Z,4.05
2018-06-12T10:14:19.621Z,4.20
2018-06-12T10:16:47.792Z,5.20
2018-06-12T10:19:16.077Z,4.35
2018-06-12T10:21:44.340Z,3.67
2018-06-12T10:24:12.562Z,4.45
2018-06-12T10:26:40.934Z,4.80
2018-06-12T10:29:09.185Z,4.30
2018-06-12T10:31:37.445Z,4.37
2018-06-12T10:34:05.621Z,4.08
2018-06-12T10:36:33.862Z,4.97
2018-06-12T10:39:02.078Z,4.20
2018-06-12T10:41:30.334Z,3.95
2018-06-12T10:43:58.552Z,4.20
2018-06-12T10:46:26.780Z,3.50
2018-06-12T10:48:55.110Z,3.40
2018-06-12T10:51:23.417Z,3.85
2018-06-12T10:53:51.626Z,3.20
2018-06-12T10:56:19.829Z,3.00
2018-06-12T10:58:48.035Z,2.83
2018-06-12T11:01:16.350Z,3.00
2018-06-12T11:03:44.571Z,3.37
2018-06-12T11:06:12.828Z,3.40
2018-06-12T11:08:41.065Z,3.00
2018-06-12T11:11:09.315Z,3.67
2018-06-12T11:13:37.600Z,3.27
2018-06-12T11:16:05.955Z,3.33
2018-06-12T11:18:34.906Z,2.67
2018-06-12T11:21:03.216Z,2.45
2018-06-12T11:23:31.658Z,2.92
2018-06-12T11:26:00.009Z,2.47
2018-06-12T11:28:28.602Z,2.40
2018-06-12T11:30:56.825Z,2.70
2018-06-12T11:33:25.184Z,2.65
2018-06-12T11:35:53.445Z,2.58
2018-06-12T11:38:21.965Z,2.90
2018-06-12T11:40:50.160Z,2.67
2018-06-12T11:43:18.438Z,2.65
2018-06-12T11:45:46.762Z,2.72
2018-06-12T11:48:15.128Z,2.42
2018-06-12T11:50:43.429Z,2.05
2018-06-12T11:53:11.632Z,2.47
2018-06-12T11:55:39.870Z,2.47
2018-06-12T11:58:08.173Z,2.85
2018-06-12T12:00:36.407Z,2.12
2018-06-12T12:03:05.261Z,2.10
2018-06-12T12:05:33.589Z,2.60
2018-06-12T12:08:02.635Z,2.15
2018-06-12T12:10:30.899Z,2.10
2018-06-12T12:12:59.135Z,2.05
2018-06-12T12:15:27.390Z,2.33
2018-06-12T12:17:55.710Z,2.33
2018-06-12T12:20:23.940Z,2.45
2018-06-12T12:22:52.152Z,2.08
2018-06-12T12:25:20.431Z,2.37
2018-06-12T12:27:48.637Z,2.15
2018-06-12T12:30:16.817Z,2.40
2018-06-12T12:32:45.219Z,3.17
2018-06-12T12:35:13.411Z,3.00
2018-06-12T12:37:41.710Z,3.10
2018-06-12T12:40:09.933Z,3.40
2018-06-12T12:42:38.171Z,2.80
2018-06-12T12:45:06.408Z,2.90
2018-06-12T12:47:34.642Z,2.58
2018-06-12T12:50:03.000Z,3.20
2018-06-12T12:52:31.229Z,2.55
2018-06-12T12:54:59.463Z,3.05
2018-06-12T12:57:27.660Z,2.72
2018-06-12T12:59:56.043Z,3.30
2018-06-12T13:02:24.304Z,2.65
2018-06-12T13:04:52.731Z,3.30
2018-06-12T13:07:20.977Z,3.02
2018-06-12T13:09:49.241Z,2.87
2018-06-12T13:12:17.477Z,3.40
2018-06-12T13:14:45.689Z,3.35
2018-06-12T13:17:13.933Z,3.10
2018-06-12T13:19:42.167Z,2.60
2018-06-12T13:22:10.379Z,3.00
2018-06-12T13:24:38.677Z,2.80
2018-06-12T13:27:06.969Z,2.75
2018-06-12T13:29:35.261Z,2.83
2018-06-12T13:32:03.513Z,3.62
2018-06-12T13:34:31.721Z,3.05
2018-06-12T13:36:59.946Z,3.17
2018-06-12T13:39:28.344Z,2.55
2018-06-12T13:41:56.622Z,2.80
2018-06-12T13:44:24.846Z,2.90
2018-06-12T13:46:53.105Z,3.02
2018-06-12T13:49:21.494Z,3.37
2018-06-12T13:51:49.726Z,3.30
2018-06-12T13:54:17.942Z,2.80
2018-06-12T13:56:46.174Z,3.02
2018-06-12T13:59:14.486Z,1.98
2018-06-12T14:01:42.720Z,2.92
2018-06-12T14:04:10.945Z,2.95
2018-06-12T14:06:39.195Z,2.87
2018-06-12T14:09:08.105Z,2.65
2018-06-12T14:11:36.290Z,2.70
2018-06-12T14:14:04.678Z,3.20
2018-06-12T14:16:32.940Z,2.47
2018-06-12T14:19:01.254Z,2.50
2018-06-12T14:21:29.435Z,2.90
2018-06-12T14:23:57.484Z,3.10
2018-06-12T14:26:25.777Z,3.47
2018-06-12T14:28:54.011Z,3.60
2018-06-12T14:31:22.260Z,2.80
2018-06-12T14:33:50.568Z,2.92
2018-06-12T14:36:19.838Z,2.37
2018-06-12T14:38:48.050Z,2.95
2018-06-12T14:41:16.241Z,2.70
2018-06-12T14:43:44.576Z,2.80
2018-06-12T14:46:12.791Z,3.02
2018-06-12T14:48:41.048Z,2.80
2018-06-12T14:51:09.244Z,2.50
2018-06-12T14:53:37.489Z,2.52
2018-06-12T14:56:05.729Z,2.55
2018-06-12T14:58:34.026Z,2.40
2018-06-12T15:01:02.309Z,2.77
2018-06-12T15:03:30.513Z,2.62
2018-06-12T15:05:58.715Z,2.65
2018-06-12T15:08:26.893Z,2.72
2018-06-12T15:10:55.109Z,2.70
2018-06-12T15:13:23.441Z,2.60
2018-06-12T15:15:51.692Z,2.62
2018-06-12T15:18:19.988Z,2.40
2018-06-12T15:20:48.353Z,1.75
2018-06-12T15:23:16.537Z,2.40
2018-06-12T15:25:44.786Z,2.12
2018-06-12T15:28:13.067Z,2.30
2018-06-12T15:30:41.287Z,2.72
2018-06-12T15:33:09.538Z,3.25
2018-06-12T15:35:37.876Z,2.55
2018-06-12T15:38:06.077Z,2.62
2018-06-12T15:40:34.327Z,2.92
2018-06-12T15:43:02.526Z,3.25
2018-06-12T15:45:30.810Z,2.92
2018-06-12T15:47:59.050Z,2.12
2018-06-12T15:50:27.287Z,2.65
2018-06-12T15:52:55.594Z,2.92
2018-06-12T15:55:23.768Z,2.35
2018-06-12T15:57:51.958Z,2.70
2018-06-12T16:00:20.158Z,2.52
2018-06-12T16:02:48.416Z,4.17
2018-06-12T16:05:16.649Z,2.45
2018-06-12T16:07:44.847Z,1.80
2018-06-12T16:10:13.162Z,3.17
2018-06-12T16:12:41.553Z,2.15
2018-06-12T16:15:09.806Z,2.95
2018-06-12T16:17:38.011Z,2.87
2018-06-12T16:20:06.240Z,2.62
2018-06-12T16:22:34.484Z,2.77
2018-06-12T16:25:02.664Z,3.10
2018-06-12T16:27:30.888Z,2.70
2018-06-12T16:29:59.199Z,2.33
2018-06-12T16:32:27.412Z,2.87
2018-06-12T16:34:55.719Z,2.40
2018-06-12T16:37:23.941Z,2.50
2018-06-12T16:39:52.177Z,2.27
2018-06-12T16:42:20.402Z,2.00
2018-06-12T16:44:48.673Z,2.10
2018-06-12T16:47:16.917Z,2.10
2018-06-12T16:49:45.095Z,2.55
2018-06-12T16:52:13.354Z,1.87
2018-06-12T16:54:41.659Z,2.47
2018-06-12T16:57:09.911Z,2.65
2018-06-12T16:59:38.363Z,2.90
2018-06-12T17:02:06.621Z,2.58
2018-06-12T17:04:35.763Z,3.17
2018-06-12T17:07:04.028Z,1.95
2018-06-12T17:09:32.309Z,2.62
2018-06-12T17:12:00.603Z,3.00
2018-06-12T17:14:28.827Z,3.33
2018-06-12T17:16:57.215Z,2.37
2018-06-12T17:19:25.401Z,3.05
2018-06-12T17:21:53.604Z,3.00
2018-06-12T17:24:21.968Z,2.80
2018-06-12T17:26:50.294Z,2.30
2018-06-12T17:29:18.567Z,4.75
2018-06-12T17:31:46.738Z,4.25
2018-06-12T17:34:15.210Z,3.20
2018-06-12T17:36:43.555Z,2.85
2018-06-12T17:39:11.893Z,2.10
2018-06-12T17:41:40.085Z,2.67
2018-06-12T17:44:08.348Z,2.75
2018-06-12T17:46:36.679Z,2.55
2018-06-12T17:49:04.964Z,3.22
2018-06-12T17:51:33.138Z,3.70
2018-06-12T17:54:01.401Z,2.80
2018-06-12T17:56:29.876Z,3.05
2018-06-12T17:58:58.137Z,4.00
2018-06-12T18:01:26.404Z,2.65
2018-06-12T18:03:54.710Z,2.87
2018-06-12T18:06:23.030Z,2.92
2018-06-12T18:08:51.316Z,3.08
2018-06-12T18:11:19.514Z,2.60
2018-06-12T18:13:47.577Z,2.65
2018-06-12T18:16:15.999Z,3.42
2018-06-12T18:18:44.186Z,2.87
2018-06-12T18:21:13.721Z,3.00
2018-06-12T18:23:44.244Z,3.02
2018-06-12T18:26:13.069Z,2.60
2018-06-12T18:28:42.389Z,2.85
2018-06-12T18:31:11.482Z,2.65
2018-06-12T18:33:39.703Z,2.70
2018-06-12T18:36:08.409Z,2.70
2018-06-12T18:38:36.803Z,2.95
2018-06-12T18:41:05.433Z,2.60
2018-06-12T18:43:36.100Z,2.75
2018-06-12T18:46:05.597Z,2.80
2018-06-12T18:48:34.849Z,3.20
2018-06-12T18:51:03.387Z,3.30
2018-06-12T18:53:32.056Z,4.30
2018-06-12T18:56:01.042Z,4.10
2018-06-12T18:58:29.506Z,2.98
2018-06-12T19:00:58.455Z,2.83
2018-06-12T19:03:27.168Z,3.30
2018-06-12T19:05:55.507Z,2.92
2018-06-12T19:08:25.382Z,3.62
2018-06-12T19:10:54.312Z,3.35
2018-06-12T19:13:22.748Z,3.12
2018-06-12T19:15:51.079Z,5.60
2018-06-12T19:18:19.657Z,6.15
2018-06-12T19:20:50.371Z,3.30
2018-06-12T19:23:19.054Z,3.33
2018-06-12T19:25:48.206Z,3.33
2018-06-12T19:28:17.770Z,3.42
2018-06-12T19:30:47.683Z,3.00
2018-06-12T19:33:16.119Z,4.25
2018-06-12T19:35:45.339Z,7.67
2018-06-12T19:38:14.070Z,4.33
2018-06-12T19:40:42.826Z,4.83
2018-06-12T19:45:46.491Z,4.22
2018-06-12T19:48:15.000Z,4.50
2018-06-12T19:50:43.480Z,3.55
2018-06-12T19:53:12.274Z,4.20
2018-06-12T19:55:41.155Z,4.92
2018-06-12T19:58:09.958Z,5.05
2018-06-12T20:00:38.424Z,4.50
2018-06-12T20:03:07.227Z,4.37
2018-06-12T20:05:36.104Z,4.42
2018-06-12T20:08:05.093Z,4.08
2018-06-12T20:10:33.787Z,4.00
2018-06-12T20:13:03.478Z,3.72
2018-06-12T20:15:32.699Z,4.30
2018-06-12T20:18:01.060Z,4.60
2018-06-12T20:20:29.254Z,3.55
2018-06-12T20:22:57.464Z,4.22
2018-06-12T20:25:25.668Z,5.10
2018-06-12T20:27:54.917Z,4.20
2018-06-12T20:30:23.176Z,5.12
2018-06-12T20:32:51.395Z,3.92
2018-06-12T20:35:19.573Z,4.22
2018-06-12T20:37:48.327Z,3.90
2018-06-12T20:40:16.623Z,12.78
2018-06-12T20:42:44.953Z,4.58
2018-06-12T20:45:13.154Z,5.28
2018-06-12T20:47:41.718Z,5.15
2018-06-12T20:50:09.977Z,4.87
2018-06-12T20:52:38.382Z,3.95
2018-06-12T20:55:06.993Z,3.45
2018-06-12T20:57:35.534Z,4.35
2018-06-12T21:00:04.037Z,4.50
2018-06-12T21:02:32.479Z,4.62
2018-06-12T21:05:00.954Z,3.90
2018-06-12T21:07:29.353Z,4.15
2018-06-12T21:09:58.025Z,4.10
2018-06-12T21:12:26.458Z,4.12
2018-06-12T21:14:54.914Z,4.47
2018-06-12T21:17:23.256Z,4.40
2018-06-12T21:19:51.791Z,4.05
2018-06-12T21:22:20.517Z,4.62
2018-06-12T21:24:48.857Z,3.47
2018-06-12T21:27:17.443Z,3.98
2018-06-12T21:29:46.500Z,3.60
2018-06-12T21:32:14.924Z,3.95
2018-06-12T21:34:45.043Z,4.40
2018-06-12T21:37:13.391Z,4.83
2018-06-12T21:39:42.840Z,3.90
2018-06-12T21:42:12.431Z,4.72
2018-06-12T21:44:41.005Z,3.52
2018-06-12T21:47:09.418Z,4.70
2018-06-12T21:49:38.115Z,3.83
2018-06-12T21:52:09.530Z,3.60
2018-06-12T21:54:37.881Z,5.60
2018-06-12T21:57:06.344Z,5.78
2018-06-12T21:59:34.994Z,7.65
2018-06-12T22:02:04.279Z,3.70
2018-06-12T22:04:33.538Z,3.75
2018-06-12T22:07:01.927Z,3.70
2018-06-12T22:09:30.221Z,4.70
2018-06-12T22:11:58.512Z,5.40
2018-06-12T22:14:29.263Z,5.40
2018-06-12T22:16:58.053Z,4.70
2018-06-12T22:19:26.221Z,5.37
2018-06-12T22:21:54.508Z,5.10
2018-06-12T22:24:22.753Z,5.22
2018-06-12T22:26:51.034Z,5.25
2018-06-12T22:29:19.335Z,4.90
2018-06-12T22:31:47.800Z,4.53
2018-06-12T22:34:16.022Z,4.78
2018-06-12T22:36:44.285Z,5.37
2018-06-12T22:39:12.576Z,5.78
2018-06-12T22:41:40.977Z,5.87
2018-06-12T22:44:09.247Z,6.03
2018-06-12T22:46:37.592Z,6.87
2018-06-12T22:49:06.214Z,6.50
2018-06-12T22:51:34.571Z,6.92
2018-06-12T22:54:02.973Z,5.40
2018-06-12T22:56:31.216Z,5.80
2018-06-12T22:58:59.535Z,6.37
2018-06-12T23:01:27.801Z,6.60
2018-06-12T23:03:56.128Z,5.97
2018-06-12T23:06:24.490Z,5.47
2018-06-12T23:08:52.769Z,5.37
2018-06-12T23:11:21.174Z,5.17
2018-06-12T23:13:49.420Z,5.53
2018-06-12T23:16:17.684Z,6.00
2018-06-12T23:18:45.984Z,5.22
2018-06-12T23:21:25.769Z,5.37
2018-06-12T23:23:53.989Z,5.95
2018-06-12T23:26:22.195Z,6.78
2018-06-12T23:28:50.472Z,7.60
2018-06-12T23:31:18.961Z,7.35
2018-06-12T23:33:47.311Z,6.75
2018-06-12T23:36:15.544Z,6.85
2018-06-12T23:38:43.841Z,6.37
2018-06-12T23:41:12.112Z,6.83
2018-06-12T23:43:40.388Z,5.62
2018-06-12T23:46:08.659Z,5.12
2018-06-12T23:48:36.934Z,5.70
2018-06-12T23:51:05.164Z,5.55
2018-06-12T23:53:33.419Z,5.05
2018-06-12T23:56:01.656Z,4.97
2018-06-12T23:58:29.856Z,5.22
